createdAt,value
2023-05-12T00:02:10.992Z,14.05
2023-05-12T00:04:41.614Z,14.25
2023-05-12T00:07:14.732Z,13.27
2023-05-12T00:12:14.617Z,13.57
2023-05-12T00:14:42.974Z,11.80
2023-05-12T00:17:11.011Z,12.88
2023-05-12T00:19:43.897Z,13.52
2023-05-12T00:22:12.428Z,13.63
2023-05-12T00:24:41.104Z,14.15
2023-05-12T00:27:09.638Z,13.55
2023-05-12T00:29:41.321Z,11.55
2023-05-12T00:32:09.518Z,12.73
2023-05-12T00:34:40.204Z,12.88
2023-05-12T00:37:08.306Z,12.25
2023-05-12T00:39:36.887Z,12.20
2023-05-12T00:42:05.719Z,14.15
2023-05-12T00:44:37.378Z,12.43
2023-05-12T00:47:06.345Z,13.27
2023-05-12T00:49:34.315Z,13.95
2023-05-12T00:52:07.602Z,14.77
2023-05-12T00:54:37.034Z,13.63
2023-05-12T00:57:05.520Z,13.35
2023-05-12T00:59:33.662Z,14.75
2023-05-12T01:02:02.139Z,13.10
2023-05-12T01:04:31.374Z,17.92
2023-05-12T01:07:05.796Z,15.50
2023-05-12T01:09:33.945Z,15.85
2023-05-12T01:12:03.538Z,12.65
2023-05-12T01:14:31.778Z,15.32
2023-05-12T01:17:01.691Z,17.95
2023-05-12T01:19:41.098Z,17.88
2023-05-12T01:22:11.320Z,14.98
2023-05-12T01:24:50.692Z,19.92
2023-05-12T01:27:21.796Z,18.55
2023-05-12T01:29:51.070Z,20.73
2023-05-12T01:32:19.963Z,20.23
2023-05-12T01:34:48.581Z,19.98
2023-05-12T01:37:17.133Z,18.98
2023-05-12T01:39:45.474Z,20.52
2023-05-12T01:42:13.820Z,19.65
2023-05-12T01:44:46.677Z,26.65
2023-05-12T01:47:15.891Z,21.50
2023-05-12T01:49:43.997Z,21.77
2023-05-12T01:52:12.384Z,24.30
2023-05-12T01:54:40.922Z,22.58
2023-05-12T01:57:09.045Z,19.23
2023-05-12T01:59:37.509Z,23.15
2023-05-12T02:02:07.874Z,19.27
2023-05-12T02:04:36.453Z,23.45
2023-05-12T02:07:04.715Z,21.48
2023-05-12T02:09:32.715Z,20.02
2023-05-12T02:12:00.942Z,21.15
2023-05-12T02:14:29.293Z,22.42
2023-05-12T02:16:59.657Z,23.00
2023-05-12T02:19:29.254Z,22.95
2023-05-12T02:21:57.307Z,26.92
2023-05-12T02:24:25.322Z,24.90
2023-05-12T02:26:53.372Z,27.38
2023-05-12T02:29:21.623Z,23.15
2023-05-12T02:31:49.555Z,27.45
2023-05-12T02:34:17.591Z,25.90
2023-05-12T02:36:47.170Z,30.02
2023-05-12T02:39:15.285Z,22.80
2023-05-12T02:41:47.338Z,24.55
2023-05-12T02:44:16.832Z,25.67
2023-05-12T02:46:44.834Z,20.40
2023-05-12T02:49:13.181Z,24.65
2023-05-12T02:51:41.041Z,22.20
2023-05-12T02:54:10.709Z,19.75
2023-05-12T02:56:38.937Z,23.25
2023-05-12T02:59:07.092Z,22.33
2023-05-12T03:01:36.325Z,19.38
2023-05-12T03:04:04.258Z,20.13
2023-05-12T03:06:32.373Z,24.08
2023-05-12T03:09:01.257Z,19.77
2023-05-12T03:11:30.979Z,19.58
2023-05-12T03:13:59.246Z,19.85
2023-05-12T03:16:27.522Z,22.88
2023-05-12T03:18:55.741Z,20.23
2023-05-12T03:21:24.464Z,18.17
2023-05-12T03:23:52.852Z,19.70
2023-05-12T03:26:21.260Z,20.70
2023-05-12T03:28:50.804Z,20.50
2023-05-12T03:31:18.999Z,22.30
2023-05-12T03:33:47.275Z,23.98
2023-05-12T03:36:15.447Z,25.67
2023-05-12T03:38:43.592Z,21.58
2023-05-12T03:41:12.095Z,22.98
2023-05-12T03:43:40.505Z,22.50
2023-05-12T03:46:10.244Z,21.50
2023-05-12T03:48:38.699Z,17.08
2023-05-12T03:51:06.876Z,21.65
2023-05-12T03:53:35.399Z,17.05
2023-05-12T03:56:06.583Z,22.30
2023-05-12T03:58:36.311Z,17.55
2023-05-12T04:01:05.076Z,20.38
2023-05-12T04:03:34.737Z,20.42
2023-05-12T04:06:04.345Z,18.92
2023-05-12T04:08:35.837Z,21.42
2023-05-12T04:11:04.681Z,20.75
2023-05-12T04:13:33.016Z,21.30
2023-05-12T04:16:01.991Z,20.90
2023-05-12T04:18:30.480Z,23.65
2023-05-12T04:21:00.134Z,20.95
2023-05-12T04:23:28.625Z,22.98
2023-05-12T04:25:57.639Z,20.73
2023-05-12T04:28:25.798Z,19.67
2023-05-12T04:30:55.364Z,22.17
2023-05-12T04:33:23.673Z,23.10
2023-05-12T04:35:56.868Z,17.55
2023-05-12T04:38:26.732Z,19.63
2023-05-12T04:41:00.155Z,17.75
2023-05-12T04:46:00.412Z,17.80
2023-05-12T04:48:28.970Z,19.58
2023-05-12T04:50:57.158Z,19.88
2023-05-12T04:53:27.886Z,18.45
2023-05-12T04:55:58.677Z,19.30
2023-05-12T04:58:26.621Z,19.08
2023-05-12T05:00:56.106Z,18.75
2023-05-12T05:03:24.734Z,20.27
2023-05-12T05:05:53.548Z,18.67
2023-05-12T05:08:22.061Z,18.17
2023-05-12T05:10:51.779Z,19.80
2023-05-12T05:13:19.964Z,20.85
2023-05-12T05:15:52.007Z,20.42
2023-05-12T05:18:23.163Z,17.40
2023-05-12T05:23:24.520Z,15.02
2023-05-12T05:25:54.922Z,16.73
2023-05-12T05:28:22.932Z,19.38
2023-05-12T05:30:51.298Z,19.40
2023-05-12T05:33:19.720Z,18.35
2023-05-12T05:35:48.233Z,18.70
2023-05-12T05:38:16.640Z,13.88
2023-05-12T05:40:53.015Z,15.30
2023-05-12T05:43:24.019Z,17.23
2023-05-12T05:45:52.461Z,15.88
2023-05-12T05:48:20.861Z,16.88
2023-05-12T05:50:49.516Z,14.45
2023-05-12T05:53:19.562Z,19.90
2023-05-12T05:55:48.758Z,16.60
2023-05-12T05:58:17.589Z,15.13
2023-05-12T06:00:47.609Z,18.38
2023-05-12T06:03:15.843Z,19.02
2023-05-12T06:05:44.941Z,15.98
2023-05-12T06:08:14.206Z,17.63
2023-05-12T06:10:42.462Z,18.75
2023-05-12T06:13:11.001Z,18.90
2023-05-12T06:15:39.476Z,17.98
2023-05-12T06:18:09.083Z,18.77
2023-05-12T06:20:37.068Z,17.13
2023-05-12T06:23:05.591Z,18.60
2023-05-12T06:25:37.932Z,21.75
2023-05-12T06:28:06.186Z,20.08
2023-05-12T06:30:35.221Z,19.80
2023-05-12T06:33:03.658Z,25.73
2023-05-12T06:35:33.615Z,23.10
2023-05-12T06:38:03.063Z,21.00
2023-05-12T06:40:31.875Z,24.92
2023-05-12T06:43:00.945Z,26.15
2023-05-12T06:45:29.078Z,24.63
2023-05-12T06:47:57.758Z,22.95
2023-05-12T06:50:26.105Z,23.52
2023-05-12T06:52:57.845Z,22.40
2023-05-12T06:55:26.152Z,20.15
2023-05-12T06:57:56.059Z,20.58
2023-05-12T07:00:30.184Z,19.60
2023-05-12T07:03:00.191Z,21.55
2023-05-12T07:05:28.474Z,21.20
2023-05-12T07:07:57.922Z,21.42
2023-05-12T07:10:27.762Z,18.45
2023-05-12T07:12:56.294Z,15.32
2023-05-12T07:15:24.627Z,15.27
2023-05-12T07:17:53.512Z,14.90
2023-05-12T07:20:21.830Z,16.42
2023-05-12T07:22:52.063Z,14.80
2023-05-12T07:25:21.897Z,17.52
2023-05-12T07:27:50.426Z,15.48
2023-05-12T07:30:18.751Z,14.15
2023-05-12T07:32:47.642Z,15.68
2023-05-12T07:35:16.510Z,13.50
2023-05-12T07:37:44.930Z,15.07
2023-05-12T07:40:13.498Z,14.55
2023-05-12T07:42:43.004Z,15.18
2023-05-12T07:45:11.703Z,18.15
2023-05-12T07:47:39.906Z,16.15
2023-05-12T07:50:08.349Z,15.55
2023-05-12T07:52:36.292Z,16.42
2023-05-12T07:55:04.348Z,16.77
2023-05-12T07:57:32.462Z,15.60
2023-05-12T08:00:02.100Z,18.63
2023-05-12T08:02:30.749Z,13.65
2023-05-12T08:04:59.114Z,17.42
2023-05-12T08:07:27.193Z,13.68
2023-05-12T08:09:55.197Z,15.50
2023-05-12T08:12:23.310Z,14.32
2023-05-12T08:14:51.433Z,13.48
2023-05-12T08:17:21.092Z,18.00
2023-05-12T08:19:49.211Z,14.88
2023-05-12T08:22:17.765Z,15.40
2023-05-12T08:24:47.250Z,12.95
2023-05-12T08:27:15.197Z,11.88
2023-05-12T08:29:43.637Z,12.18
2023-05-12T08:32:11.953Z,13.32
2023-05-12T08:34:41.187Z,10.60
2023-05-12T08:37:09.522Z,9.65
2023-05-12T08:39:38.222Z,10.48
2023-05-12T08:42:17.484Z,8.98
2023-05-12T08:44:46.811Z,7.55
2023-05-12T08:47:16.752Z,8.68
2023-05-12T08:49:52.383Z,8.25
2023-05-12T08:52:22.245Z,9.18
2023-05-12T08:54:56.022Z,8.27
2023-05-12T08:57:26.476Z,8.48
2023-05-12T09:00:00.759Z,7.25
2023-05-12T09:02:38.003Z,6.03
2023-05-12T09:05:14.583Z,6.60
2023-05-12T09:07:45.106Z,6.82
2023-05-12T09:10:25.972Z,7.72
2023-05-12T09:13:04.837Z,6.78
2023-05-12T09:15:37.831Z,7.20
2023-05-12T09:18:07.651Z,6.78
2023-05-12T09:20:38.984Z,10.50
2023-05-12T09:23:18.565Z,7.47
2023-05-12T09:25:47.514Z,6.80
2023-05-12T09:28:16.256Z,6.13
2023-05-12T09:30:44.445Z,6.18
2023-05-12T09:33:14.695Z,5.97
2023-05-12T09:35:48.584Z,5.72
2023-05-12T09:38:17.130Z,6.90
2023-05-12T09:40:47.165Z,5.72
2023-05-12T09:43:15.848Z,5.60
2023-05-12T09:45:44.094Z,6.85
2023-05-12T09:48:13.952Z,6.72
2023-05-12T09:50:48.890Z,6.15
2023-05-12T09:53:19.651Z,5.97
2023-05-12T09:55:49.259Z,7.07
2023-05-12T09:58:19.538Z,5.63
2023-05-12T10:03:23.138Z,6.20
2023-05-12T10:05:58.718Z,8.07
2023-05-12T10:08:31.249Z,5.88
2023-05-12T10:11:03.190Z,7.20
2023-05-12T10:13:32.192Z,7.40
2023-05-12T10:16:01.045Z,7.68
2023-05-12T10:18:29.585Z,9.60
2023-05-12T10:21:00.819Z,9.27
2023-05-12T10:23:30.469Z,8.48
2023-05-12T10:26:02.508Z,7.03
2023-05-12T10:28:30.959Z,6.90
2023-05-12T10:31:00.040Z,10.07
2023-05-12T10:33:28.561Z,9.55
2023-05-12T10:35:58.078Z,6.45
2023-05-12T10:38:26.493Z,8.45
2023-05-12T10:40:58.162Z,7.25
2023-05-12T10:43:28.271Z,10.73
2023-05-12T10:46:09.963Z,10.15
2023-05-12T10:48:50.786Z,11.07
2023-05-12T10:51:23.888Z,7.22
2023-05-12T10:56:31.158Z,8.40
2023-05-12T10:59:13.576Z,9.02
2023-05-12T11:01:43.464Z,7.43
2023-05-12T11:04:14.681Z,9.27
2023-05-12T11:06:46.821Z,7.18
2023-05-12T11:09:17.516Z,6.30
2023-05-12T11:11:47.589Z,5.47
2023-05-12T11:14:17.984Z,6.10
2023-05-12T11:16:46.821Z,5.88
2023-05-12T11:19:15.185Z,6.05
2023-05-12T11:21:45.118Z,5.60
2023-05-12T11:24:13.917Z,6.47
2023-05-12T11:26:42.918Z,4.95
2023-05-12T11:29:11.158Z,7.95
2023-05-12T11:31:40.080Z,6.63
2023-05-12T11:34:13.011Z,7.13
2023-05-12T11:36:43.497Z,8.07
2023-05-12T11:39:18.173Z,5.90
2023-05-12T11:41:46.871Z,7.43
2023-05-12T11:44:19.076Z,6.75
2023-05-12T11:46:58.113Z,6.47
2023-05-12T11:49:27.148Z,7.30
2023-05-12T11:51:56.506Z,6.97
2023-05-12T11:54:26.556Z,6.97
2023-05-12T11:56:57.814Z,5.28
2023-05-12T11:59:30.504Z,7.95
2023-05-12T12:02:00.774Z,6.00
2023-05-12T12:04:37.036Z,7.82
2023-05-12T12:07:07.275Z,6.00
2023-05-12T12:09:38.311Z,4.70
2023-05-12T12:12:08.508Z,5.82
2023-05-12T12:14:41.377Z,6.40
2023-05-12T12:17:09.634Z,6.10
2023-05-12T12:19:38.204Z,8.52
2023-05-12T12:22:06.582Z,6.38
2023-05-12T12:24:35.757Z,6.75
2023-05-12T12:27:06.221Z,5.88
2023-05-12T12:29:35.075Z,6.30
2023-05-12T12:32:02.909Z,7.18
2023-05-12T12:34:31.250Z,7.18
2023-05-12T12:36:59.955Z,6.80
2023-05-12T12:39:28.438Z,7.80
2023-05-12T12:41:56.622Z,7.38
2023-05-12T12:44:26.563Z,8.55
2023-05-12T12:46:56.660Z,9.52
2023-05-12T12:49:25.170Z,9.23
2023-05-12T12:51:53.843Z,10.60
2023-05-12T12:54:22.710Z,9.32
2023-05-12T12:56:51.183Z,10.40
2023-05-12T12:59:19.842Z,11.55
2023-05-12T13:01:49.636Z,9.55
2023-05-12T13:04:22.608Z,9.82
2023-05-12T13:06:51.087Z,11.70
2023-05-12T13:09:21.724Z,8.68
2023-05-12T13:11:50.466Z,9.00
2023-05-12T13:14:19.103Z,9.73
2023-05-12T13:16:48.898Z,10.05
2023-05-12T13:19:17.701Z,10.68
2023-05-12T13:21:46.359Z,11.77
2023-05-12T13:24:15.171Z,9.68
2023-05-12T13:26:43.454Z,12.40
2023-05-12T13:29:11.588Z,21.75
2023-05-12T13:31:41.475Z,12.65
2023-05-12T13:34:14.028Z,8.60
2023-05-12T13:36:42.771Z,9.45
2023-05-12T13:39:11.403Z,11.30
2023-05-12T13:41:40.324Z,10.40
2023-05-12T13:44:09.072Z,10.75
2023-05-12T13:46:37.763Z,11.25
2023-05-12T13:49:05.830Z,10.18
2023-05-12T13:51:35.154Z,12.55
2023-05-12T13:54:03.383Z,10.40
2023-05-12T13:56:32.972Z,11.13
2023-05-12T13:59:01.701Z,12.18
2023-05-12T14:01:29.965Z,10.65
2023-05-12T14:03:58.456Z,10.77
2023-05-12T14:06:27.895Z,11.40
2023-05-12T14:08:58.502Z,9.23
2023-05-12T14:11:26.847Z,9.65
2023-05-12T14:13:55.630Z,9.02
2023-05-12T14:16:24.080Z,8.98
2023-05-12T14:18:52.469Z,9.77
2023-05-12T14:21:20.852Z,11.50
2023-05-12T14:23:52.291Z,18.50
2023-05-12T14:26:23.970Z,8.70
2023-05-12T14:28:53.570Z,9.57
2023-05-12T14:31:21.515Z,9.50
2023-05-12T14:33:49.492Z,10.95
2023-05-12T14:36:18.515Z,10.90
2023-05-12T14:38:46.816Z,9.77
2023-05-12T14:41:15.590Z,9.70
2023-05-12T14:43:45.021Z,9.00
2023-05-12T14:46:13.945Z,8.95
2023-05-12T14:48:43.096Z,9.48
2023-05-12T14:51:11.744Z,8.10
2023-05-12T14:53:40.173Z,8.35
2023-05-12T14:56:08.585Z,9.20
2023-05-12T14:58:36.802Z,7.55
2023-05-12T15:01:08.706Z,7.32
2023-05-12T15:03:37.662Z,7.32
2023-05-12T15:06:07.882Z,8.40
2023-05-12T15:08:36.682Z,7.90
2023-05-12T15:11:05.155Z,8.35
2023-05-12T15:13:34.092Z,6.82
2023-05-12T15:16:04.480Z,6.68
2023-05-12T15:18:33.850Z,6.68
2023-05-12T15:21:02.012Z,5.88
2023-05-12T15:23:29.904Z,3.60
2023-05-12T15:25:59.394Z,3.35
2023-05-12T15:28:27.560Z,4.28
2023-05-12T15:30:56.987Z,2.20
2023-05-12T15:33:26.036Z,2.58
2023-05-12T15:35:55.851Z,2.75
2023-05-12T15:38:24.087Z,5.50
2023-05-12T15:40:52.626Z,3.55
2023-05-12T15:43:21.208Z,4.60
2023-05-12T15:45:49.353Z,3.03
2023-05-12T15:48:17.619Z,2.50
2023-05-12T15:50:46.101Z,2.00
2023-05-12T15:53:15.870Z,3.22
2023-05-12T15:55:44.311Z,2.08
2023-05-12T15:58:12.524Z,2.33
2023-05-12T16:00:41.026Z,2.05
2023-05-12T16:03:09.434Z,2.00
2023-05-12T16:05:38.499Z,1.58
2023-05-12T16:08:06.915Z,2.30
2023-05-12T16:10:36.483Z,2.97
2023-05-12T16:13:05.009Z,3.03
2023-05-12T16:15:33.495Z,2.13
2023-05-12T16:18:01.858Z,2.60
2023-05-12T16:20:32.101Z,4.80
2023-05-12T16:23:00.303Z,5.15
2023-05-12T16:25:28.405Z,2.72
2023-05-12T16:27:57.929Z,2.38
2023-05-12T16:30:26.340Z,3.25
2023-05-12T16:32:54.478Z,2.08
2023-05-12T16:35:23.138Z,2.30
2023-05-12T16:37:51.673Z,1.80
2023-05-12T16:40:20.364Z,2.85
2023-05-12T16:42:48.564Z,3.03
2023-05-12T16:45:21.218Z,1.67
2023-05-12T16:47:49.653Z,2.83
2023-05-12T16:50:18.048Z,2.33
2023-05-12T16:52:46.216Z,3.60
2023-05-12T16:55:14.810Z,1.30
2023-05-12T16:57:43.601Z,1.95
2023-05-12T17:00:12.754Z,2.17
2023-05-12T17:02:42.192Z,2.88
2023-05-12T17:05:10.899Z,2.00
2023-05-12T17:07:39.515Z,3.10
2023-05-12T17:10:07.809Z,2.05
2023-05-12T17:12:36.707Z,2.22
2023-05-12T17:15:08.009Z,2.05
2023-05-12T17:17:37.067Z,2.50
2023-05-12T17:20:08.117Z,1.25
2023-05-12T17:22:41.353Z,2.15
2023-05-12T17:25:10.077Z,2.45
2023-05-12T17:27:38.009Z,2.00
2023-05-12T17:30:07.088Z,2.75
2023-05-12T17:32:35.416Z,2.10
2023-05-12T17:35:03.614Z,6.13
2023-05-12T17:37:33.897Z,3.67
2023-05-12T17:40:02.544Z,2.75
2023-05-12T17:42:31.837Z,2.40
2023-05-12T17:45:00.569Z,2.33
2023-05-12T17:47:29.150Z,3.22
2023-05-12T17:49:58.039Z,2.55
2023-05-12T17:52:27.402Z,2.33
2023-05-12T17:54:57.582Z,2.97
2023-05-12T17:57:26.112Z,3.38
2023-05-12T17:59:54.661Z,2.08
2023-05-12T18:02:23.142Z,1.77
2023-05-12T18:04:52.995Z,2.70
2023-05-12T18:07:22.345Z,1.85
2023-05-12T18:09:50.417Z,2.30
2023-05-12T18:12:20.691Z,2.42
2023-05-12T18:14:48.933Z,3.20
2023-05-12T18:17:17.492Z,4.00
2023-05-12T18:19:46.027Z,2.63
2023-05-12T18:22:20.085Z,3.78
2023-05-12T18:24:48.079Z,2.95
2023-05-12T18:27:15.872Z,5.88
2023-05-12T18:29:45.238Z,3.40
2023-05-12T18:32:13.976Z,3.38
2023-05-12T18:34:44.079Z,2.45
2023-05-12T18:37:15.278Z,3.55
2023-05-12T18:39:43.662Z,2.25
2023-05-12T18:42:12.455Z,13.05
2023-05-12T18:44:42.199Z,10.63
2023-05-12T18:47:11.557Z,1.98
2023-05-12T18:49:39.968Z,1.95
2023-05-12T18:52:08.051Z,2.67
2023-05-12T18:54:37.525Z,1.95
2023-05-12T18:57:06.039Z,3.95
2023-05-12T18:59:34.328Z,8.05
2023-05-12T19:02:03.218Z,3.30
2023-05-12T19:04:32.894Z,4.40
2023-05-12T19:07:01.282Z,2.53
2023-05-12T19:09:29.483Z,2.35
2023-05-12T19:11:57.710Z,1.45
2023-05-12T19:14:26.212Z,3.17
2023-05-12T19:16:54.919Z,2.60
2023-05-12T19:19:23.638Z,1.63
2023-05-12T19:21:53.785Z,1.75
2023-05-12T19:24:22.445Z,3.03
2023-05-12T19:26:50.957Z,3.03
2023-05-12T19:29:19.644Z,4.60
2023-05-12T19:31:48.054Z,5.13
2023-05-12T19:34:16.390Z,5.03
2023-05-12T19:36:44.723Z,4.90
2023-05-12T19:39:14.222Z,2.25
2023-05-12T19:41:42.574Z,2.42
2023-05-12T19:44:10.840Z,2.90
2023-05-12T19:46:39.629Z,2.20
2023-05-12T19:49:07.854Z,1.70
2023-05-12T19:51:36.494Z,3.00
2023-05-12T19:54:06.465Z,2.88
2023-05-12T19:56:35.748Z,1.73
2023-05-12T19:59:03.922Z,1.52
2023-05-12T20:01:33.210Z,2.15
2023-05-12T20:04:02.887Z,1.65
2023-05-12T20:06:31.887Z,2.05
2023-05-12T20:08:59.824Z,2.17
2023-05-12T20:11:28.448Z,2.33
2023-05-12T20:13:57.941Z,2.10
2023-05-12T20:16:26.847Z,1.58
2023-05-12T20:18:55.522Z,2.10
2023-05-12T20:21:24.438Z,2.13
2023-05-12T20:23:53.251Z,2.10
2023-05-12T20:26:21.406Z,2.22
2023-05-12T20:28:51.180Z,2.80
2023-05-12T20:31:21.113Z,3.63
2023-05-12T20:33:49.697Z,3.30
2023-05-12T20:36:18.022Z,2.83
2023-05-12T20:38:48.122Z,4.63
2023-05-12T20:41:16.658Z,2.90
2023-05-12T20:43:46.611Z,2.88
2023-05-12T20:46:15.276Z,2.85
2023-05-12T20:48:44.509Z,3.08
2023-05-12T20:51:13.130Z,2.20
2023-05-12T20:53:42.227Z,4.43
2023-05-12T20:56:10.833Z,3.03
2023-05-12T20:58:39.088Z,4.93
2023-05-12T21:01:07.357Z,2.55
2023-05-12T21:03:36.503Z,2.75
2023-05-12T21:06:07.550Z,2.65
2023-05-12T21:08:35.871Z,3.20
2023-05-12T21:11:04.737Z,3.25
2023-05-12T21:13:33.086Z,4.22
2023-05-12T21:16:02.466Z,2.63
2023-05-12T21:18:30.956Z,3.67
2023-05-12T21:20:59.555Z,2.83
2023-05-12T21:23:29.143Z,3.38
2023-05-12T21:25:57.359Z,3.95
2023-05-12T21:28:26.235Z,2.45
2023-05-12T21:30:54.743Z,2.75
2023-05-12T21:33:23.123Z,2.20
2023-05-12T21:35:51.130Z,2.95
2023-05-12T21:38:20.862Z,2.72
2023-05-12T21:40:52.678Z,3.28
2023-05-12T21:43:21.179Z,2.08
2023-05-12T21:45:51.799Z,2.72
2023-05-12T21:48:20.393Z,2.58
2023-05-12T21:50:59.108Z,3.42
2023-05-12T21:53:28.296Z,3.38
2023-05-12T21:55:57.477Z,3.72
2023-05-12T21:58:28.301Z,4.38
2023-05-12T22:00:58.259Z,4.55
2023-05-12T22:03:27.328Z,3.15
2023-05-12T22:05:57.030Z,3.65
2023-05-12T22:08:25.284Z,4.22
2023-05-12T22:10:53.901Z,4.57
2023-05-12T22:13:23.158Z,2.85
2023-05-12T22:15:51.888Z,3.88
2023-05-12T22:18:20.166Z,3.35
2023-05-12T22:20:48.858Z,4.05
2023-05-12T22:23:16.993Z,3.83
2023-05-12T22:25:45.184Z,5.20
2023-05-12T22:28:13.745Z,4.50
2023-05-12T22:30:43.210Z,6.28
2023-05-12T22:33:12.174Z,6.03
2023-05-12T22:35:42.568Z,4.70
2023-05-12T22:38:12.121Z,5.10
2023-05-12T22:40:41.032Z,4.57
2023-05-12T22:43:23.393Z,4.93
2023-05-12T22:45:53.448Z,7.40
2023-05-12T22:48:21.595Z,6.68
2023-05-12T22:50:49.976Z,5.72
2023-05-12T22:53:18.159Z,5.30
2023-05-12T22:55:47.406Z,6.28
2023-05-12T22:58:16.037Z,5.15
2023-05-12T23:00:44.396Z,5.28
2023-05-12T23:03:13.981Z,4.75
2023-05-12T23:05:42.954Z,4.55
2023-05-12T23:08:11.387Z,6.10
2023-05-12T23:10:39.686Z,7.40
2023-05-12T23:13:08.402Z,5.85
2023-05-12T23:15:38.197Z,4.78
2023-05-12T23:18:06.707Z,4.60
2023-05-12T23:20:36.230Z,4.68
2023-05-12T23:23:04.641Z,4.80
2023-05-12T23:25:35.206Z,5.38
2023-05-12T23:28:03.720Z,5.00
2023-05-12T23:30:32.709Z,4.95
2023-05-12T23:33:01.836Z,5.97
2023-05-12T23:35:30.411Z,4.40
2023-05-12T23:37:59.752Z,4.55
2023-05-12T23:40:28.631Z,6.57
2023-05-12T23:42:57.230Z,4.63
2023-05-12T23:45:27.042Z,4.65
2023-05-12T23:47:56.069Z,4.22
2023-05-12T23:50:24.530Z,5.22
2023-05-12T23:52:53.922Z,5.07
2023-05-12T23:55:23.717Z,6.55
2023-05-12T23:57:52.190Z,10.15
